createdAt,value
2022-08-14T00:00:22.177Z,9.59
2022-08-14T00:01:10.173Z,9.36
2022-08-14T00:01:55.629Z,9.00
2022-08-14T00:02:38.026Z,8.81
2022-08-14T00:03:34.143Z,9.15
2022-08-14T00:04:32.101Z,9.24
2022-08-14T00:05:20.000Z,9.13
2022-08-14T00:05:58.247Z,9.21
2022-08-14T00:06:47.169Z,8.99
2022-08-14T00:07:21.009Z,8.81
2022-08-14T00:08:14.345Z,8.85
2022-08-14T00:08:49.199Z,9.19
2022-08-14T00:09:56.009Z,8.91
2022-08-14T00:10:51.252Z,8.69
2022-08-14T00:11:46.955Z,8.81
2022-08-14T00:12:40.952Z,9.10
2022-08-14T00:13:37.917Z,9.19
2022-08-14T00:14:31.989Z,8.79
2022-08-14T00:15:43.501Z,8.95
2022-08-14T00:16:41.352Z,8.70
2022-08-14T00:17:48.406Z,8.86
2022-08-14T00:19:06.112Z,9.02
2022-08-14T00:20:01.940Z,9.04
2022-08-14T00:20:56.993Z,9.26
2022-08-14T00:21:51.053Z,9.27
2022-08-14T00:22:56.895Z,9.39
2022-08-14T00:23:53.853Z,9.57
2022-08-14T00:24:47.929Z,9.46
2022-08-14T00:25:43.001Z,9.18
2022-08-14T00:26:23.345Z,9.54
2022-08-14T00:27:04.996Z,10.02
2022-08-14T00:27:44.952Z,9.56
2022-08-14T00:28:32.735Z,9.86
2022-08-14T00:29:16.921Z,9.95
2022-08-14T00:29:56.995Z,9.79
2022-08-14T00:30:37.934Z,9.86
2022-08-14T00:31:35.331Z,10.39
2022-08-14T00:32:50.533Z,10.34
2022-08-14T00:33:53.045Z,9.97
2022-08-14T00:34:52.926Z,9.66
2022-08-14T00:36:36.075Z,9.76
2022-08-14T00:36:50.010Z,10.71
2022-08-14T00:37:30.014Z,11.18
2022-08-14T00:38:12.918Z,11.89
2022-08-14T00:38:53.998Z,12.26
2022-08-14T00:39:33.985Z,11.69
2022-08-14T00:40:27.540Z,11.54
2022-08-14T00:41:14.916Z,11.35
2022-08-14T00:42:02.247Z,10.71
2022-08-14T00:42:57.935Z,10.24
2022-08-14T00:43:51.898Z,9.93
2022-08-14T00:44:45.933Z,9.87
2022-08-14T00:45:39.994Z,9.95
2022-08-14T00:46:34.918Z,10.09
2022-08-14T00:47:24.955Z,9.40
2022-08-14T00:48:01.001Z,9.14
2022-08-14T00:48:49.208Z,9.43
2022-08-14T00:49:22.982Z,9.27
2022-08-14T00:50:16.745Z,8.98
2022-08-14T00:50:55.045Z,8.93
2022-08-14T00:51:44.909Z,9.05
2022-08-14T00:52:22.677Z,9.09
2022-08-14T00:53:10.663Z,9.39
2022-08-14T00:53:51.014Z,9.50
2022-08-14T00:54:33.926Z,9.44
2022-08-14T00:55:16.869Z,9.48
2022-08-14T00:56:01.902Z,9.04
2022-08-14T00:56:49.103Z,8.91
2022-08-14T00:57:36.914Z,9.44
2022-08-14T00:58:44.931Z,9.45
2022-08-14T00:59:41.886Z,9.59
2022-08-14T01:00:42.886Z,10.20
2022-08-14T01:01:43.055Z,10.05
2022-08-14T01:02:37.958Z,10.09
2022-08-14T01:03:35.885Z,10.09
2022-08-14T01:04:51.966Z,9.90
2022-08-14T01:05:25.096Z,9.57
2022-08-14T01:06:08.873Z,9.68
2022-08-14T01:06:50.768Z,9.84
2022-08-14T01:07:47.263Z,9.86
2022-08-14T01:08:51.979Z,9.85
2022-08-14T01:09:36.928Z,9.76
2022-08-14T01:10:17.847Z,9.89
2022-08-14T01:10:58.892Z,9.84
2022-08-14T01:11:38.991Z,9.70
2022-08-14T01:12:29.936Z,9.84
2022-08-14T01:13:11.020Z,9.99
2022-08-14T01:13:55.992Z,10.53
2022-08-14T01:14:49.018Z,10.65
2022-08-14T01:15:57.701Z,10.16
2022-08-14T01:16:55.668Z,10.24
2022-08-14T01:18:07.894Z,10.26
2022-08-14T01:19:20.910Z,10.23
2022-08-14T01:20:39.388Z,10.35
2022-08-14T01:21:17.096Z,10.26
2022-08-14T01:22:03.877Z,10.05
2022-08-14T01:22:38.949Z,10.16
2022-08-14T01:23:46.482Z,9.99
2022-08-14T01:24:24.674Z,9.95
2022-08-14T01:25:17.878Z,10.23
2022-08-14T01:26:01.918Z,10.44
2022-08-14T01:27:00.145Z,10.24
2022-08-14T01:27:57.735Z,10.09
2022-08-14T01:28:56.736Z,10.30
2022-08-14T01:30:03.081Z,9.66
2022-08-14T01:31:02.016Z,9.38
2022-08-14T01:31:55.871Z,9.63
2022-08-14T01:32:51.487Z,9.76
2022-08-14T01:35:16.407Z,9.66
2022-08-14T01:35:17.356Z,9.74
2022-08-14T01:36:28.911Z,10.07
2022-08-14T01:37:23.861Z,9.93
2022-08-14T01:38:21.860Z,10.04
2022-08-14T01:39:32.273Z,9.75
2022-08-14T01:40:36.567Z,9.65
2022-08-14T01:41:36.937Z,9.40
2022-08-14T01:42:36.339Z,9.96
2022-08-14T01:43:36.889Z,10.43
2022-08-14T01:44:34.534Z,11.14
2022-08-14T01:45:28.914Z,10.86
2022-08-14T01:46:33.340Z,11.13
2022-08-14T01:47:21.706Z,11.99
2022-08-14T01:48:15.905Z,12.55
2022-08-14T01:49:16.865Z,13.46
2022-08-14T01:50:11.865Z,12.94
2022-08-14T01:51:19.260Z,11.41
2022-08-14T01:52:34.332Z,10.49
2022-08-14T01:53:16.901Z,9.95
2022-08-14T01:54:09.974Z,9.85
2022-08-14T01:54:58.144Z,10.06
2022-08-14T01:55:40.428Z,9.79
2022-08-14T01:56:24.885Z,9.50
2022-08-14T01:57:13.319Z,9.51
2022-08-14T01:58:01.483Z,9.55
2022-08-14T01:58:57.994Z,9.34
2022-08-14T01:59:38.575Z,9.39
2022-08-14T02:00:27.959Z,9.38
2022-08-14T02:01:05.917Z,9.82
2022-08-14T02:01:59.880Z,10.01
2022-08-14T02:02:36.647Z,10.26
2022-08-14T02:03:23.855Z,10.34
2022-08-14T02:04:04.890Z,10.34
2022-08-14T02:05:15.876Z,10.26
2022-08-14T02:06:33.248Z,9.51
2022-08-14T02:07:27.302Z,9.59
2022-08-14T02:08:53.179Z,9.96
2022-08-14T02:09:39.857Z,9.89
2022-08-14T02:10:26.022Z,10.16
2022-08-14T02:11:29.112Z,9.70
2022-08-14T02:12:19.416Z,10.07
2022-08-14T02:13:00.840Z,9.99
2022-08-14T02:13:43.899Z,9.59
2022-08-14T02:14:31.418Z,9.41
2022-08-14T02:15:15.944Z,9.51
2022-08-14T02:15:51.364Z,9.41
2022-08-14T02:16:46.053Z,9.40
2022-08-14T02:17:23.655Z,9.49
2022-08-14T02:18:11.648Z,9.66
2022-08-14T02:18:46.187Z,9.76
2022-08-14T02:19:36.876Z,9.82
2022-08-14T02:20:13.932Z,9.64
2022-08-14T02:20:55.877Z,9.66
2022-08-14T02:21:46.848Z,9.50
2022-08-14T02:22:33.383Z,9.27
2022-08-14T02:23:14.933Z,9.88
2022-08-14T02:23:58.817Z,10.19
2022-08-14T02:24:45.178Z,10.06
2022-08-14T02:25:30.075Z,10.06
2022-08-14T02:26:29.149Z,10.09
2022-08-14T02:28:23.645Z,9.38
2022-08-14T02:28:25.730Z,9.25
2022-08-14T02:29:17.706Z,10.02
2022-08-14T02:30:04.804Z,9.85
2022-08-14T02:30:46.092Z,9.76
2022-08-14T02:31:36.208Z,9.99
2022-08-14T02:32:30.296Z,9.61
2022-08-14T02:33:10.679Z,9.52
2022-08-14T02:33:45.269Z,10.13
2022-08-14T02:34:30.814Z,10.06
2022-08-14T02:35:16.737Z,9.77
2022-08-14T02:36:05.127Z,9.60
2022-08-14T02:37:03.924Z,9.44
2022-08-14T02:37:47.141Z,9.48
2022-08-14T02:38:30.191Z,9.59
2022-08-14T02:39:16.875Z,9.32
2022-08-14T02:39:54.937Z,9.43
2022-08-14T02:40:33.997Z,9.95
2022-08-14T02:41:19.804Z,9.91
2022-08-14T02:41:58.145Z,10.00
2022-08-14T02:42:38.841Z,9.93
2022-08-14T02:43:22.687Z,9.63
2022-08-14T02:44:02.817Z,9.57
2022-08-14T02:44:43.293Z,9.45
2022-08-14T02:45:33.503Z,9.84
2022-08-14T02:46:20.600Z,9.57
2022-08-14T02:47:07.185Z,9.54
2022-08-14T02:48:01.844Z,9.56
2022-08-14T02:49:04.727Z,9.55
2022-08-14T02:49:50.475Z,9.63
2022-08-14T02:50:29.588Z,10.10
2022-08-14T02:51:30.438Z,10.35
2022-08-14T02:52:56.385Z,10.84
2022-08-14T02:53:14.954Z,10.39
2022-08-14T02:53:48.852Z,9.57
2022-08-14T02:54:40.788Z,9.68
2022-08-14T02:55:34.796Z,9.96
2022-08-14T02:57:16.680Z,10.52
2022-08-14T02:57:46.820Z,9.90
2022-08-14T02:58:44.848Z,9.74
2022-08-14T02:59:33.872Z,10.48
2022-08-14T03:00:18.732Z,10.66
2022-08-14T03:01:01.288Z,10.29
2022-08-14T03:01:50.848Z,10.26
2022-08-14T03:02:56.258Z,10.51
2022-08-14T03:03:38.859Z,10.68
2022-08-14T03:04:20.704Z,11.30
2022-08-14T03:04:55.683Z,11.63
2022-08-14T03:05:43.799Z,11.02
2022-08-14T03:06:48.932Z,10.71
2022-08-14T03:07:27.786Z,10.71
2022-08-14T03:08:19.094Z,10.75
2022-08-14T03:09:07.781Z,10.66
2022-08-14T03:10:27.539Z,11.07
2022-08-14T03:11:07.764Z,10.68
2022-08-14T03:12:01.801Z,10.16
2022-08-14T03:12:58.793Z,10.63
2022-08-14T03:13:59.557Z,11.30
2022-08-14T03:14:56.818Z,11.07
2022-08-14T03:15:55.785Z,10.48
2022-08-14T03:16:55.793Z,10.44
2022-08-14T03:17:58.373Z,10.68
2022-08-14T03:18:52.799Z,10.81
2022-08-14T03:19:46.795Z,10.89
2022-08-14T03:20:34.885Z,11.15
2022-08-14T03:21:19.675Z,11.65
2022-08-14T03:22:00.770Z,11.34
2022-08-14T03:22:42.000Z,11.90
2022-08-14T03:23:22.793Z,11.70
2022-08-14T03:24:21.432Z,11.76
2022-08-14T03:25:03.804Z,11.60
2022-08-14T03:25:54.810Z,11.14
2022-08-14T03:26:57.342Z,10.75
2022-08-14T03:27:58.266Z,11.76
2022-08-14T03:28:54.775Z,11.94
2022-08-14T03:29:48.791Z,11.68
2022-08-14T03:30:44.781Z,11.61
2022-08-14T03:31:29.304Z,11.63
2022-08-14T03:32:11.000Z,12.46
2022-08-14T03:32:51.476Z,12.60
2022-08-14T03:33:37.677Z,12.10
2022-08-14T03:34:24.759Z,12.09
2022-08-14T03:35:19.931Z,12.38
2022-08-14T03:37:28.778Z,12.95
2022-08-14T03:37:29.703Z,12.36
2022-08-14T03:39:12.303Z,12.29
2022-08-14T03:39:15.117Z,12.31
2022-08-14T03:39:55.863Z,12.71
2022-08-14T03:40:44.758Z,12.49
2022-08-14T03:41:26.869Z,12.26
2022-08-14T03:42:19.605Z,13.43
2022-08-14T03:42:53.857Z,15.45
2022-08-14T03:43:40.769Z,32.60
2022-08-14T03:45:25.973Z,53.46
2022-08-14T03:45:33.398Z,23.65
2022-08-14T03:46:39.101Z,19.49
2022-08-14T03:47:19.796Z,13.32
2022-08-14T03:47:58.513Z,14.05
2022-08-14T03:48:49.750Z,13.52
2022-08-14T03:49:29.956Z,13.19
2022-08-14T03:50:27.613Z,13.32
2022-08-14T03:51:04.888Z,13.41
2022-08-14T03:51:55.753Z,13.11
2022-08-14T03:52:40.685Z,13.05
2022-08-14T03:53:34.750Z,13.13
2022-08-14T03:54:28.779Z,13.30
2022-08-14T03:55:24.743Z,13.33
2022-08-14T03:56:21.362Z,13.14
2022-08-14T03:57:16.754Z,13.52
2022-08-14T03:58:04.779Z,13.04
2022-08-14T03:58:42.056Z,13.24
2022-08-14T03:59:28.838Z,13.32
2022-08-14T04:00:04.593Z,13.48
2022-08-14T04:00:52.785Z,13.52
2022-08-14T04:01:29.503Z,13.26
2022-08-14T04:02:37.014Z,13.19
2022-08-14T04:03:24.394Z,13.16
2022-08-14T04:04:19.743Z,13.19
2022-08-14T04:05:16.647Z,13.23
2022-08-14T04:06:10.745Z,13.16
2022-08-14T04:07:05.774Z,13.39
2022-08-14T04:08:08.496Z,13.35
2022-08-14T04:08:59.784Z,13.66
2022-08-14T04:09:39.821Z,13.41
2022-08-14T04:10:26.253Z,13.50
2022-08-14T04:11:15.318Z,13.54
2022-08-14T04:11:56.291Z,13.65
2022-08-14T04:12:38.846Z,13.50
2022-08-14T04:13:24.746Z,13.14
2022-08-14T04:14:17.763Z,13.66
2022-08-14T04:15:13.747Z,13.60
2022-08-14T04:16:13.747Z,13.41
2022-08-14T04:17:09.946Z,13.34
2022-08-14T04:18:03.750Z,13.19
2022-08-14T04:19:02.928Z,13.65
2022-08-14T04:19:43.777Z,13.51
2022-08-14T04:20:25.595Z,13.38
2022-08-14T04:21:07.727Z,13.51
2022-08-14T04:22:02.666Z,14.03
2022-08-14T04:22:44.922Z,13.73
2022-08-14T04:23:29.709Z,13.35
2022-08-14T04:24:13.742Z,13.68
2022-08-14T04:25:04.836Z,13.35
2022-08-14T04:26:01.740Z,13.25
2022-08-14T04:26:55.747Z,13.05
2022-08-14T04:28:02.107Z,12.71
2022-08-14T04:29:05.273Z,12.86
2022-08-14T04:30:08.756Z,12.85
2022-08-14T04:31:18.717Z,12.82
2022-08-14T04:32:58.521Z,13.31
2022-08-14T04:33:47.873Z,13.82
2022-08-14T04:34:52.161Z,13.51
2022-08-14T04:35:56.029Z,13.20
2022-08-14T04:36:53.758Z,13.15
2022-08-14T04:37:53.710Z,13.32
2022-08-14T04:38:52.680Z,12.99
2022-08-14T04:39:56.907Z,13.10
2022-08-14T04:41:03.759Z,13.14
2022-08-14T04:42:17.738Z,13.27
2022-08-14T04:43:39.122Z,13.04
2022-08-14T04:44:36.592Z,13.11
2022-08-14T04:45:30.721Z,12.93
2022-08-14T04:46:56.697Z,13.05
2022-08-14T04:47:35.499Z,13.20
2022-08-14T04:48:38.760Z,13.38
2022-08-14T04:49:16.796Z,13.16
2022-08-14T04:50:04.725Z,13.18
2022-08-14T04:50:44.499Z,13.02
2022-08-14T04:51:47.003Z,13.54
2022-08-14T04:52:28.803Z,13.34
2022-08-14T04:53:23.021Z,13.39
2022-08-14T04:53:57.780Z,13.49
2022-08-14T04:54:45.728Z,13.16
2022-08-14T04:55:20.492Z,13.11
2022-08-14T04:56:20.619Z,12.79
2022-08-14T04:57:10.745Z,13.10
2022-08-14T04:58:04.708Z,13.05
2022-08-14T04:59:04.706Z,12.99
2022-08-14T05:00:03.697Z,12.65
2022-08-14T05:01:02.724Z,12.93
2022-08-14T05:01:57.375Z,13.05
2022-08-14T05:02:40.892Z,13.04
2022-08-14T05:03:25.281Z,13.11
2022-08-14T05:04:05.700Z,13.46
2022-08-14T05:04:57.162Z,13.46
2022-08-14T05:05:39.706Z,12.89
2022-08-14T05:06:37.705Z,13.00
2022-08-14T05:07:46.394Z,12.85
2022-08-14T05:08:31.790Z,12.81
2022-08-14T05:09:15.769Z,12.80
2022-08-14T05:10:12.897Z,12.79
2022-08-14T05:10:54.916Z,13.01
2022-08-14T05:11:44.378Z,12.86
2022-08-14T05:13:11.196Z,12.90
2022-08-14T05:13:29.886Z,12.79
2022-08-14T05:14:34.643Z,12.50
2022-08-14T05:15:14.717Z,12.56
2022-08-14T05:15:49.767Z,12.65
2022-08-14T05:16:41.688Z,13.18
2022-08-14T05:17:17.850Z,12.74
2022-08-14T05:18:37.198Z,12.54
2022-08-14T05:19:25.112Z,12.26
2022-08-14T05:21:04.879Z,12.60
2022-08-14T05:21:56.731Z,12.57
2022-08-14T05:22:54.278Z,12.61
2022-08-14T05:23:53.760Z,12.31
2022-08-14T05:24:36.700Z,11.93
2022-08-14T05:25:19.273Z,12.04
2022-08-14T05:26:19.675Z,12.50
2022-08-14T05:27:03.184Z,12.20
2022-08-14T05:27:43.688Z,12.01
2022-08-14T05:28:29.765Z,12.45
2022-08-14T05:29:11.978Z,12.56
2022-08-14T05:29:55.466Z,12.43
2022-08-14T05:30:30.756Z,12.24
2022-08-14T05:31:21.091Z,12.63
2022-08-14T05:31:58.628Z,12.19
2022-08-14T05:32:45.709Z,11.89
2022-08-14T05:33:24.310Z,12.21
2022-08-14T05:34:12.675Z,11.74
2022-08-14T05:34:46.763Z,11.70
2022-08-14T05:35:27.722Z,11.77
2022-08-14T05:36:16.754Z,11.76
2022-08-14T05:36:58.873Z,11.70
2022-08-14T05:37:46.120Z,11.91
2022-08-14T05:38:31.341Z,11.80
2022-08-14T05:39:12.817Z,11.86
2022-08-14T05:39:53.802Z,11.96
2022-08-14T05:40:41.725Z,11.88
2022-08-14T05:41:52.612Z,12.09
2022-08-14T05:42:52.799Z,12.05
2022-08-14T05:43:47.668Z,11.55
2022-08-14T05:44:41.670Z,11.51
2022-08-14T05:45:41.698Z,11.66
2022-08-14T05:46:35.678Z,11.73
2022-08-14T05:47:39.203Z,11.74
2022-08-14T05:48:42.960Z,11.74
2022-08-14T05:49:38.238Z,11.79
2022-08-14T05:50:32.673Z,11.99
2022-08-14T05:51:13.679Z,11.09
2022-08-14T05:51:53.795Z,11.15
2022-08-14T05:52:39.187Z,11.36
2022-08-14T05:53:19.728Z,11.21
2022-08-14T05:54:13.599Z,11.56
2022-08-14T05:55:03.840Z,11.57
2022-08-14T05:55:44.952Z,12.06
2022-08-14T05:56:32.728Z,11.43
2022-08-14T05:57:30.649Z,11.13
2022-08-14T05:58:40.838Z,11.01
2022-08-14T05:59:39.260Z,11.24
2022-08-14T06:00:44.668Z,11.45
2022-08-14T06:01:38.757Z,11.49
2022-08-14T06:02:32.655Z,11.34
2022-08-14T06:03:31.659Z,10.91
2022-08-14T06:04:25.651Z,11.02
2022-08-14T06:05:23.344Z,11.10
2022-08-14T06:06:17.665Z,10.81
2022-08-14T06:06:57.695Z,10.90
2022-08-14T06:07:37.733Z,11.11
2022-08-14T06:08:36.814Z,11.01
2022-08-14T06:09:21.729Z,10.59
2022-08-14T06:10:04.080Z,10.85
2022-08-14T06:10:45.008Z,10.86
2022-08-14T06:11:30.502Z,11.07
2022-08-14T06:12:12.688Z,11.00
2022-08-14T06:13:06.797Z,11.04
2022-08-14T06:13:55.652Z,10.89
2022-08-14T06:14:31.209Z,10.96
2022-08-14T06:15:18.650Z,11.18
2022-08-14T06:15:56.692Z,11.27
2022-08-14T06:16:45.645Z,10.44
2022-08-14T06:17:28.687Z,10.79
2022-08-14T06:18:32.637Z,11.02
2022-08-14T06:19:26.652Z,10.99
2022-08-14T06:20:22.089Z,11.00
2022-08-14T06:21:18.638Z,11.14
2022-08-14T06:22:12.642Z,11.23
2022-08-14T06:22:53.697Z,10.93
2022-08-14T06:23:33.696Z,10.49
2022-08-14T06:24:18.667Z,10.45
2022-08-14T06:24:59.710Z,10.52
2022-08-14T06:25:41.660Z,10.50
2022-08-14T06:26:22.771Z,10.65
2022-08-14T06:27:11.675Z,10.52
2022-08-14T06:28:03.865Z,10.94
2022-08-14T06:28:57.655Z,10.81
2022-08-14T06:29:52.643Z,10.61
2022-08-14T06:30:48.644Z,10.14
2022-08-14T06:31:42.646Z,9.94
2022-08-14T06:32:39.311Z,9.90
2022-08-14T06:33:30.142Z,10.02
2022-08-14T06:35:10.795Z,10.55
2022-08-14T06:35:26.620Z,9.90
2022-08-14T06:36:06.712Z,9.76
2022-08-14T06:36:52.624Z,9.90
2022-08-14T06:37:35.162Z,9.95
2022-08-14T06:38:23.646Z,10.04
2022-08-14T06:39:10.037Z,9.49
2022-08-14T06:39:44.726Z,9.51
2022-08-14T06:40:34.700Z,9.76
2022-08-14T06:41:20.640Z,9.99
2022-08-14T06:42:07.655Z,10.25
2022-08-14T06:43:03.967Z,10.32
2022-08-14T06:43:45.372Z,10.06
2022-08-14T06:44:30.268Z,10.25
2022-08-14T06:45:12.660Z,10.49
2022-08-14T06:45:57.156Z,10.25
2022-08-14T06:46:37.855Z,10.74
2022-08-14T06:47:18.705Z,10.82
2022-08-14T06:48:06.268Z,10.44
2022-08-14T06:49:02.683Z,10.88
2022-08-14T06:49:58.013Z,11.23
2022-08-14T06:50:52.600Z,10.55
2022-08-14T06:51:47.633Z,10.25
2022-08-14T06:52:50.378Z,9.85
2022-08-14T06:53:45.652Z,9.84
2022-08-14T06:54:31.318Z,10.52
2022-08-14T06:55:13.793Z,10.55
2022-08-14T06:55:57.968Z,10.51
2022-08-14T06:56:39.705Z,10.31
2022-08-14T06:57:25.593Z,10.25
2022-08-14T06:58:05.862Z,10.65
2022-08-14T06:58:53.621Z,10.63
2022-08-14T06:59:42.637Z,10.69
2022-08-14T07:00:40.613Z,10.57
2022-08-14T07:01:58.609Z,10.36
2022-08-14T07:03:12.235Z,9.91
2022-08-14T07:04:24.661Z,10.30
2022-08-14T07:05:23.658Z,10.43
2022-08-14T07:06:03.785Z,10.20
2022-08-14T07:06:51.594Z,10.29
2022-08-14T07:07:47.257Z,10.27
2022-08-14T07:08:34.615Z,10.35
2022-08-14T07:09:23.025Z,10.71
2022-08-14T07:10:03.594Z,10.40
2022-08-14T07:10:44.612Z,10.05
2022-08-14T07:11:22.757Z,10.13
2022-08-14T07:12:55.110Z,10.32
2022-08-14T07:13:04.826Z,10.25
2022-08-14T07:13:51.626Z,10.34
2022-08-14T07:14:25.789Z,10.35
2022-08-14T07:15:14.655Z,10.71
2022-08-14T07:15:56.639Z,10.91
2022-08-14T07:16:52.727Z,10.85
2022-08-14T07:17:46.689Z,10.79
2022-08-14T07:18:50.934Z,10.30
2022-08-14T07:19:44.608Z,9.81
2022-08-14T07:20:38.600Z,9.88
2022-08-14T07:21:19.620Z,9.52
2022-08-14T07:21:59.741Z,9.39
2022-08-14T07:22:56.223Z,9.76
2022-08-14T07:23:40.262Z,9.55
2022-08-14T07:24:30.993Z,9.18
2022-08-14T07:25:12.686Z,10.14
2022-08-14T07:25:53.606Z,10.25
2022-08-14T07:26:34.621Z,9.91
2022-08-14T07:27:12.781Z,9.68
2022-08-14T07:28:00.600Z,10.00
2022-08-14T07:28:42.994Z,9.80
2022-08-14T07:29:30.603Z,9.32
2022-08-14T07:30:04.636Z,9.32
2022-08-14T07:30:57.676Z,9.38
2022-08-14T07:31:46.659Z,9.30
2022-08-14T07:32:40.705Z,8.80
2022-08-14T07:33:34.606Z,8.98
2022-08-14T07:34:36.251Z,9.00
2022-08-14T07:35:42.861Z,8.77
2022-08-14T07:36:37.670Z,9.34
2022-08-14T07:37:34.688Z,9.36
2022-08-14T07:38:16.510Z,9.13
2022-08-14T07:38:57.604Z,8.86
2022-08-14T07:39:31.362Z,8.94
2022-08-14T07:40:27.764Z,9.31
2022-08-14T07:41:06.857Z,8.98
2022-08-14T07:42:00.570Z,8.80
2022-08-14T07:42:41.602Z,8.69
2022-08-14T07:43:23.079Z,8.96
2022-08-14T07:44:29.196Z,8.73
2022-08-14T07:45:03.674Z,8.57
2022-08-14T07:45:44.585Z,8.27
2022-08-14T07:46:31.030Z,8.51
2022-08-14T07:47:12.577Z,8.44
2022-08-14T07:48:02.613Z,8.63
2022-08-14T07:48:41.394Z,8.82
2022-08-14T07:49:29.586Z,8.36
2022-08-14T07:50:13.751Z,8.06
2022-08-14T07:51:10.961Z,8.34
2022-08-14T07:51:49.615Z,8.18
2022-08-14T07:52:38.743Z,8.06
2022-08-14T07:53:20.656Z,8.10
2022-08-14T07:54:00.624Z,8.06
2022-08-14T07:54:40.665Z,7.85
2022-08-14T07:55:24.648Z,7.71
2022-08-14T07:56:43.866Z,7.85
2022-08-14T07:57:22.476Z,7.76
2022-08-14T07:58:05.904Z,7.78
2022-08-14T07:59:06.596Z,7.97
2022-08-14T07:59:44.633Z,7.64
2022-08-14T08:00:30.878Z,7.49
2022-08-14T08:01:13.565Z,7.40
2022-08-14T08:01:52.857Z,7.55
2022-08-14T08:02:32.691Z,7.40
2022-08-14T08:03:16.672Z,7.28
2022-08-14T08:03:59.690Z,7.15
2022-08-14T08:04:42.597Z,6.47
2022-08-14T08:05:26.247Z,6.76
2022-08-14T08:06:10.558Z,6.78
2022-08-14T08:06:58.632Z,6.59
2022-08-14T08:07:48.582Z,6.86
2022-08-14T08:08:27.181Z,6.95
2022-08-14T08:09:16.555Z,6.56
2022-08-14T08:10:07.604Z,6.54
2022-08-14T08:11:14.821Z,6.66
2022-08-14T08:12:14.396Z,6.90
2022-08-14T08:13:18.569Z,6.60
2022-08-14T08:14:20.574Z,6.39
2022-08-14T08:15:14.586Z,6.34
2022-08-14T08:16:13.565Z,6.51
2022-08-14T08:17:10.574Z,6.69
2022-08-14T08:18:04.594Z,6.55
2022-08-14T08:19:01.797Z,6.74
2022-08-14T08:20:00.647Z,6.51
2022-08-14T08:20:44.569Z,6.81
2022-08-14T08:21:35.539Z,7.03
2022-08-14T08:22:15.569Z,6.91
2022-08-14T08:23:00.385Z,6.54
2022-08-14T08:23:50.843Z,6.40
2022-08-14T08:24:31.647Z,6.18
2022-08-14T08:25:42.574Z,6.24
2022-08-14T08:26:23.540Z,6.10
2022-08-14T08:27:03.719Z,6.16
2022-08-14T08:27:45.033Z,5.84
2022-08-14T08:28:31.473Z,6.00
2022-08-14T08:29:15.601Z,6.00
2022-08-14T08:29:56.661Z,5.88
2022-08-14T08:30:45.125Z,5.72
2022-08-14T08:31:32.860Z,6.16
2022-08-14T08:32:09.882Z,6.57
2022-08-14T08:33:01.534Z,6.43
2022-08-14T08:33:40.193Z,6.16
2022-08-14T08:34:28.550Z,6.23
2022-08-14T08:35:04.617Z,6.29
2022-08-14T08:35:54.552Z,6.29
2022-08-14T08:36:29.976Z,6.24
2022-08-14T08:37:11.574Z,6.32
2022-08-14T08:38:01.092Z,6.43
2022-08-14T08:39:18.872Z,6.24
2022-08-14T08:40:03.422Z,6.29
2022-08-14T08:40:53.638Z,6.40
2022-08-14T08:41:54.674Z,6.20
2022-08-14T08:42:38.325Z,6.09
2022-08-14T08:43:38.080Z,5.89
2022-08-14T08:44:31.989Z,6.00
2022-08-14T08:45:14.609Z,6.39
2022-08-14T08:46:06.525Z,6.28
2022-08-14T08:47:08.000Z,6.01
2022-08-14T08:47:49.543Z,6.11
2022-08-14T08:48:35.577Z,6.38
2022-08-14T08:49:19.549Z,6.39
2022-08-14T08:50:00.689Z,6.07
2022-08-14T08:50:45.574Z,6.41
2022-08-14T08:51:43.118Z,6.10
2022-08-14T08:52:30.995Z,6.18
2022-08-14T08:53:16.555Z,6.55
2022-08-14T08:53:50.655Z,6.36
2022-08-14T08:54:41.530Z,6.13
2022-08-14T08:55:15.665Z,5.96
2022-08-14T08:56:03.565Z,6.06
2022-08-14T08:56:56.024Z,6.15
2022-08-14T08:57:44.516Z,6.13
2022-08-14T08:58:32.590Z,6.05
2022-08-14T08:59:34.648Z,5.78
2022-08-14T09:00:31.644Z,5.57
2022-08-14T09:01:25.538Z,5.51
2022-08-14T09:02:26.093Z,5.47
2022-08-14T09:03:21.655Z,5.60
2022-08-14T09:04:14.769Z,5.72
2022-08-14T09:04:56.259Z,5.49
2022-08-14T09:05:39.512Z,5.28
2022-08-14T09:07:01.147Z,5.53
2022-08-14T09:07:20.511Z,5.47
2022-08-14T09:08:01.631Z,5.54
2022-08-14T09:09:00.961Z,5.40
2022-08-14T09:09:59.228Z,5.34
2022-08-14T09:10:33.467Z,5.69
2022-08-14T09:11:22.549Z,5.54
2022-08-14T09:11:58.224Z,5.47
2022-08-14T09:12:46.895Z,5.40
2022-08-14T09:13:30.498Z,5.53
2022-08-14T09:14:18.556Z,5.39
2022-08-14T09:14:53.281Z,5.35
2022-08-14T09:15:36.591Z,5.74
2022-08-14T09:16:18.625Z,5.69
2022-08-14T09:16:54.393Z,5.40
2022-08-14T09:17:36.578Z,5.29
2022-08-14T09:18:10.650Z,5.54
2022-08-14T09:18:44.320Z,5.46
2022-08-14T09:19:27.501Z,5.31
2022-08-14T09:20:02.337Z,5.32
2022-08-14T09:20:47.564Z,5.47
2022-08-14T09:21:31.375Z,5.36
2022-08-14T09:22:35.906Z,5.66
2022-08-14T09:23:16.814Z,6.85
2022-08-14T09:24:28.923Z,7.88
2022-08-14T09:25:01.616Z,6.53
2022-08-14T09:26:00.169Z,6.53
2022-08-14T09:26:43.751Z,6.74
2022-08-14T09:27:22.684Z,6.65
2022-08-14T09:27:57.303Z,6.61
2022-08-14T09:28:37.521Z,6.51
2022-08-14T09:29:12.660Z,6.09
2022-08-14T09:29:54.346Z,6.14
2022-08-14T09:30:35.532Z,6.36
2022-08-14T09:31:18.013Z,6.29
2022-08-14T09:32:26.979Z,6.00
2022-08-14T09:33:12.708Z,5.82
2022-08-14T09:34:26.892Z,5.96
2022-08-14T09:35:27.809Z,5.76
2022-08-14T09:37:15.721Z,5.66
2022-08-14T09:38:45.784Z,5.47
2022-08-14T09:40:20.570Z,5.24
2022-08-14T09:42:20.658Z,5.32
2022-08-14T09:43:33.654Z,5.46
2022-08-14T09:44:29.797Z,5.44
2022-08-14T09:45:30.297Z,5.21
2022-08-14T09:46:21.479Z,5.07
2022-08-14T09:47:06.507Z,4.93
2022-08-14T09:47:52.705Z,4.65
2022-08-14T09:48:35.528Z,4.68
2022-08-14T09:49:17.696Z,4.81
2022-08-14T09:50:00.492Z,4.72
2022-08-14T09:51:58.478Z,4.80
2022-08-14T09:52:41.108Z,4.94
2022-08-14T09:54:18.204Z,4.80
2022-08-14T09:54:55.646Z,5.03
2022-08-14T09:55:45.007Z,4.65
2022-08-14T09:56:31.140Z,4.75
2022-08-14T09:57:13.525Z,4.81
2022-08-14T09:57:54.571Z,4.97
2022-08-14T09:58:52.494Z,4.94
2022-08-14T09:59:36.354Z,4.86
2022-08-14T10:00:29.173Z,4.91
2022-08-14T10:01:21.375Z,4.90
2022-08-14T10:02:05.807Z,5.00
2022-08-14T10:02:45.486Z,5.16
2022-08-14T10:03:36.217Z,5.53
2022-08-14T10:04:37.694Z,5.40
2022-08-14T10:05:17.565Z,5.16
2022-08-14T10:06:12.014Z,5.25
2022-08-14T10:06:53.487Z,5.13
2022-08-14T10:07:41.752Z,4.93
2022-08-14T10:08:26.313Z,4.96
2022-08-14T10:09:16.568Z,4.89
2022-08-14T10:10:02.575Z,4.95
2022-08-14T10:11:02.546Z,4.90
2022-08-14T10:11:58.845Z,5.04
2022-08-14T10:12:50.228Z,5.10
2022-08-14T10:13:52.822Z,5.11
2022-08-14T10:14:35.995Z,5.14
2022-08-14T10:15:33.560Z,5.91
2022-08-14T10:16:07.302Z,5.69
2022-08-14T10:17:12.513Z,5.46
2022-08-14T10:17:49.131Z,5.01
2022-08-14T10:18:40.465Z,4.95
2022-08-14T10:19:20.478Z,5.41
2022-08-14T10:20:07.503Z,5.25
2022-08-14T10:21:09.837Z,5.16
2022-08-14T10:23:12.651Z,5.38
2022-08-14T10:23:30.181Z,5.29
2022-08-14T10:24:37.316Z,5.35
2022-08-14T10:25:23.481Z,5.39
2022-08-14T10:26:22.994Z,5.49
2022-08-14T10:27:03.337Z,5.43
2022-08-14T10:27:56.936Z,5.24
2022-08-14T10:29:17.760Z,5.30
2022-08-14T10:29:58.229Z,5.04
2022-08-14T10:30:38.731Z,5.15
2022-08-14T10:31:45.253Z,5.11
2022-08-14T10:32:29.074Z,5.19
2022-08-14T10:33:50.512Z,5.30
2022-08-14T10:34:36.604Z,5.34
2022-08-14T10:35:31.648Z,5.49
2022-08-14T10:36:09.788Z,5.68
2022-08-14T10:37:17.483Z,5.43
2022-08-14T10:37:59.532Z,5.45
2022-08-14T10:38:35.683Z,5.51
2022-08-14T10:39:33.769Z,5.61
2022-08-14T10:40:38.742Z,5.66
2022-08-14T10:41:46.458Z,5.57
2022-08-14T10:42:29.742Z,5.75
2022-08-14T10:43:03.629Z,5.47
2022-08-14T10:43:38.596Z,5.37
2022-08-14T10:44:24.443Z,5.38
2022-08-14T10:44:58.699Z,5.49
2022-08-14T10:45:35.811Z,5.61
2022-08-14T10:47:39.163Z,5.71
2022-08-14T10:47:39.436Z,5.70
2022-08-14T10:48:36.522Z,5.74
2022-08-14T10:49:31.521Z,5.39
2022-08-14T10:50:16.467Z,5.47
2022-08-14T10:50:57.317Z,5.53
2022-08-14T10:51:41.851Z,5.35
2022-08-14T10:52:36.393Z,5.49
2022-08-14T10:53:20.490Z,5.44
2022-08-14T10:54:25.922Z,5.57
2022-08-14T10:54:59.210Z,5.56
2022-08-14T10:55:39.405Z,5.34
2022-08-14T10:56:42.439Z,5.19
2022-08-14T10:57:30.644Z,5.19
2022-08-14T10:58:06.928Z,5.28
2022-08-14T10:58:48.470Z,5.50
2022-08-14T10:59:31.311Z,5.70
2022-08-14T11:00:20.888Z,5.63
2022-08-14T11:01:17.465Z,5.86
2022-08-14T11:01:51.197Z,6.13
2022-08-14T11:02:54.793Z,5.91
2022-08-14T11:03:55.867Z,5.51
2022-08-14T11:04:46.526Z,5.36